ESMT/HAD METAR and TAF weather

Enter ICAO airport designator
Station Type Date Time Source
ESMT METAR 2021/03/06 01:20 UTC NOAA

ESMT 060120Z AUTO 22003KT 9999 NCD M04/M04 Q1026


Station Type Date Time Source
ESMT Decoded METAR 2021/03/06 01:20 UTC NOAA

Halmstad Swedish Air Force Base , Sweden (ESMT) 56-41N 012-50E
Mar 05, 2021 - 08:20 PM EST / 2021.03.06 0120 UTC
Wind: from the SW (220 degrees) at 3 MPH (3 KT):0
Visibility: greater than 7 mile(s):0
Temperature: 24 F (-4 C)
Dew Point: 24 F (-4 C)
Relative Humidity: 100%
Pressure (altimeter): 30.30 in. Hg (1026 hPa)
ob: ESMT 060120Z AUTO 22003KT 9999 NCD M04/M04 Q1026
cycle: 1

Station Type Date Time Source
ESMT TAF 2020/11/01 07:40 UTC NOAA

TAF
AMD ESMT 010733Z 0107/0121 16010KT 9999 BKN012
TEMPO 0107/0109 2800 RADZ BR BKN003
BECMG 0109/0112 SCT012

Example: see airport list